sensor_id;sensor_type;location;lat;lon;timestamp;P1;durP1;ratioP1;P2;durP2;ratioP2
45730;SDS011;31440;48.584;13.460;2022-08-14T00:01:59;6.35;;;4.20;;
45730;SDS011;31440;48.584;13.460;2022-08-14T00:04:25;4.95;;;4.45;;
45730;SDS011;31440;48.584;13.460;2022-08-14T00:06:50;4.80;;;4.30;;
45730;SDS011;31440;48.584;13.460;2022-08-14T00:09:16;4.85;;;4.38;;
45730;SDS011;31440;48.584;13.460;2022-08-14T00:11:41;5.95;;;4.55;;
45730;SDS011;31440;48.584;13.460;2022-08-14T00:14:07;5.40;;;4.90;;
45730;SDS011;31440;48.584;13.460;2022-08-14T00:16:34;5.75;;;4.57;;
45730;SDS011;31440;48.584;13.460;2022-08-14T00:19:00;6.55;;;4.40;;
45730;SDS011;31440;48.584;13.460;2022-08-14T00:21:26;4.60;;;4.20;;
45730;SDS011;31440;48.584;13.460;2022-08-14T00:23:51;4.43;;;3.95;;
45730;SDS011;31440;48.584;13.460;2022-08-14T00:26:18;5.47;;;4.72;;
45730;SDS011;31440;48.584;13.460;2022-08-14T00:28:44;5.25;;;4.75;;
45730;SDS011;31440;48.584;13.460;2022-08-14T00:31:10;6.53;;;5.55;;
45730;SDS011;31440;48.584;13.460;2022-08-14T00:33:35;5.72;;;5.20;;
45730;SDS011;31440;48.584;13.460;2022-08-14T00:36:02;6.88;;;5.07;;
45730;SDS011;31440;48.584;13.460;2022-08-14T00:38:28;5.43;;;4.93;;
45730;SDS011;31440;48.584;13.460;2022-08-14T00:40:53;6.03;;;5.35;;
45730;SDS011;31440;48.584;13.460;2022-08-14T00:43:19;5.97;;;5.38;;
45730;SDS011;31440;48.584;13.460;2022-08-14T00:45:44;7.40;;;5.68;;
45730;SDS011;31440;48.584;13.460;2022-08-14T00:48:10;7.80;;;6.05;;
45730;SDS011;31440;48.584;13.460;2022-08-14T00:50:36;7.90;;;5.82;;
45730;SDS011;31440;48.584;13.460;2022-08-14T00:53:02;5.88;;;5.28;;
45730;SDS011;31440;48.584;13.460;2022-08-14T00:55:28;5.80;;;5.20;;
45730;SDS011;31440;48.584;13.460;2022-08-14T00:57:55;7.30;;;5.68;;
45730;SDS011;31440;48.584;13.460;2022-08-14T01:00:39;7.38;;;6.68;;
45730;SDS011;31440;48.584;13.460;2022-08-14T01:03:06;7.57;;;6.18;;
45730;SDS011;31440;48.584;13.460;2022-08-14T01:05:32;6.70;;;5.80;;
45730;SDS011;31440;48.584;13.460;2022-08-14T01:07:58;7.28;;;6.07;;
45730;SDS011;31440;48.584;13.460;2022-08-14T01:10:25;8.73;;;6.28;;
45730;SDS011;31440;48.584;13.460;2022-08-14T01:13:14;7.18;;;6.07;;
45730;SDS011;31440;48.584;13.460;2022-08-14T01:15:44;6.22;;;5.53;;
45730;SDS011;31440;48.584;13.460;2022-08-14T01:18:12;7.38;;;6.68;;
45730;SDS011;31440;48.584;13.460;2022-08-14T01:20:57;7.13;;;5.63;;
45730;SDS011;31440;48.584;13.460;2022-08-14T01:23:37;6.85;;;5.28;;
45730;SDS011;31440;48.584;13.460;2022-08-14T01:26:04;7.28;;;6.57;;
45730;SDS011;31440;48.584;13.460;2022-08-14T01:28:31;10.10;;;6.50;;
45730;SDS011;31440;48.584;13.460;2022-08-14T01:30:59;7.20;;;6.55;;
45730;SDS011;31440;48.584;13.460;2022-08-14T01:33:27;7.07;;;6.38;;
45730;SDS011;31440;48.584;13.460;2022-08-14T01:35:54;6.53;;;5.55;;
45730;SDS011;31440;48.584;13.460;2022-08-14T01:38:26;7.03;;;6.25;;
45730;SDS011;31440;48.584;13.460;2022-08-14T01:41:01;6.43;;;5.28;;
45730;SDS011;31440;48.584;13.460;2022-08-14T01:45:57;6.55;;;5.32;;
45730;SDS011;31440;48.584;13.460;2022-08-14T01:48:25;6.18;;;5.57;;
45730;SDS011;31440;48.584;13.460;2022-08-14T01:50:57;5.93;;;5.22;;
45730;SDS011;31440;48.584;13.460;2022-08-14T01:53:25;5.82;;;5.15;;
45730;SDS011;31440;48.584;13.460;2022-08-14T01:55:54;5.70;;;5.18;;
45730;SDS011;31440;48.584;13.460;2022-08-14T01:58:23;6.55;;;5.88;;
45730;SDS011;31440;48.584;13.460;2022-08-14T02:00:54;6.50;;;5.90;;
45730;SDS011;31440;48.584;13.460;2022-08-14T02:03:24;7.35;;;5.53;;
45730;SDS011;31440;48.584;13.460;2022-08-14T02:05:55;6.50;;;5.90;;
45730;SDS011;31440;48.584;13.460;2022-08-14T02:08:27;7.30;;;5.78;;
45730;SDS011;31440;48.584;13.460;2022-08-14T02:10:56;7.07;;;6.38;;
45730;SDS011;31440;48.584;13.460;2022-08-14T02:13:42;9.00;;;6.07;;
45730;SDS011;31440;48.584;13.460;2022-08-14T02:16:09;6.78;;;6.07;;
45730;SDS011;31440;48.584;13.460;2022-08-14T02:18:36;7.65;;;6.20;;
45730;SDS011;31440;48.584;13.460;2022-08-14T02:21:02;6.60;;;6.00;;
45730;SDS011;31440;48.584;13.460;2022-08-14T02:23:29;6.72;;;5.50;;
45730;SDS011;31440;48.584;13.460;2022-08-14T02:25:56;7.80;;;6.00;;
45730;SDS011;31440;48.584;13.460;2022-08-14T02:28:24;10.48;;;6.35;;
45730;SDS011;31440;48.584;13.460;2022-08-14T02:30:54;7.55;;;6.38;;
45730;SDS011;31440;48.584;13.460;2022-08-14T02:33:20;6.53;;;5.82;;
45730;SDS011;31440;48.584;13.460;2022-08-14T02:35:47;6.40;;;5.80;;
45730;SDS011;31440;48.584;13.460;2022-08-14T02:38:13;6.25;;;5.65;;
45730;SDS011;31440;48.584;13.460;2022-08-14T02:40:38;8.35;;;6.55;;
45730;SDS011;31440;48.584;13.460;2022-08-14T02:43:04;7.10;;;6.15;;
45730;SDS011;31440;48.584;13.460;2022-08-14T02:45:31;6.18;;;5.57;;
45730;SDS011;31440;48.584;13.460;2022-08-14T02:47:59;8.05;;;5.90;;
45730;SDS011;31440;48.584;13.460;2022-08-14T02:50:27;6.85;;;6.15;;
45730;SDS011;31440;48.584;13.460;2022-08-14T02:52:52;7.22;;;6.53;;
45730;SDS011;31440;48.584;13.460;2022-08-14T02:55:18;7.78;;;7.07;;
45730;SDS011;31440;48.584;13.460;2022-08-14T02:57:44;8.10;;;7.30;;
45730;SDS011;31440;48.584;13.460;2022-08-14T03:00:11;7.22;;;6.53;;
45730;SDS011;31440;48.584;13.460;2022-08-14T03:02:37;10.10;;;7.88;;
45730;SDS011;31440;48.584;13.460;2022-08-14T03:05:03;10.40;;;7.70;;
45730;SDS011;31440;48.584;13.460;2022-08-14T03:07:29;9.88;;;8.18;;
45730;SDS011;31440;48.584;13.460;2022-08-14T03:09:55;9.23;;;7.68;;
45730;SDS011;31440;48.584;13.460;2022-08-14T03:12:21;9.32;;;7.95;;
45730;SDS011;31440;48.584;13.460;2022-08-14T03:14:47;8.13;;;7.28;;
45730;SDS011;31440;48.584;13.460;2022-08-14T03:17:16;9.48;;;7.97;;
45730;SDS011;31440;48.584;13.460;2022-08-14T03:19:41;9.98;;;8.18;;
45730;SDS011;31440;48.584;13.460;2022-08-14T03:22:07;10.25;;;8.45;;
45730;SDS011;31440;48.584;13.460;2022-08-14T03:24:33;8.02;;;7.22;;
45730;SDS011;31440;48.584;13.460;2022-08-14T03:27:00;8.00;;;7.20;;
45730;SDS011;31440;48.584;13.460;2022-08-14T03:29:27;7.90;;;7.10;;
45730;SDS011;31440;48.584;13.460;2022-08-14T03:31:53;7.90;;;7.03;;
45730;SDS011;31440;48.584;13.460;2022-08-14T03:34:20;8.65;;;7.60;;
45730;SDS011;31440;48.584;13.460;2022-08-14T03:36:47;9.45;;;7.60;;
45730;SDS011;31440;48.584;13.460;2022-08-14T03:39:19;8.32;;;7.30;;
45730;SDS011;31440;48.584;13.460;2022-08-14T03:41:46;8.45;;;7.63;;
45730;SDS011;31440;48.584;13.460;2022-08-14T03:44:12;11.05;;;8.07;;
45730;SDS011;31440;48.584;13.460;2022-08-14T03:46:38;9.60;;;8.45;;
45730;SDS011;31440;48.584;13.460;2022-08-14T03:49:07;10.75;;;8.55;;
45730;SDS011;31440;48.584;13.460;2022-08-14T03:51:33;11.63;;;8.90;;
45730;SDS011;31440;48.584;13.460;2022-08-14T03:54:00;10.13;;;9.00;;
45730;SDS011;31440;48.584;13.460;2022-08-14T03:56:28;11.18;;;9.75;;
45730;SDS011;31440;48.584;13.460;2022-08-14T03:58:57;15.25;;;11.73;;
45730;SDS011;31440;48.584;13.460;2022-08-14T04:01:26;15.10;;;10.85;;
45730;SDS011;31440;48.584;13.460;2022-08-14T04:03:54;13.02;;;10.63;;
45730;SDS011;31440;48.584;13.460;2022-08-14T04:06:22;12.53;;;10.83;;
45730;SDS011;31440;48.584;13.460;2022-08-14T04:08:48;13.57;;;9.57;;
45730;SDS011;31440;48.584;13.460;2022-08-14T04:11:15;11.63;;;9.73;;
45730;SDS011;31440;48.584;13.460;2022-08-14T04:13:41;10.63;;;9.32;;
45730;SDS011;31440;48.584;13.460;2022-08-14T04:16:08;10.50;;;9.40;;
45730;SDS011;31440;48.584;13.460;2022-08-14T04:18:46;9.57;;;8.60;;
45730;SDS011;31440;48.584;13.460;2022-08-14T04:21:15;11.95;;;9.27;;
45730;SDS011;31440;48.584;13.460;2022-08-14T04:23:41;11.93;;;9.25;;
45730;SDS011;31440;48.584;13.460;2022-08-14T04:26:09;11.68;;;9.68;;
45730;SDS011;31440;48.584;13.460;2022-08-14T04:28:36;9.73;;;8.75;;
45730;SDS011;31440;48.584;13.460;2022-08-14T04:31:03;9.20;;;8.23;;
45730;SDS011;31440;48.584;13.460;2022-08-14T04:33:29;8.95;;;8.05;;
45730;SDS011;31440;48.584;13.460;2022-08-14T04:35:55;10.57;;;9.10;;
45730;SDS011;31440;48.584;13.460;2022-08-14T04:38:21;11.07;;;8.00;;
45730;SDS011;31440;48.584;13.460;2022-08-14T04:41:06;9.30;;;8.30;;
45730;SDS011;31440;48.584;13.460;2022-08-14T04:43:50;9.65;;;8.65;;
45730;SDS011;31440;48.584;13.460;2022-08-14T04:46:18;10.23;;;8.48;;
45730;SDS011;31440;48.584;13.460;2022-08-14T04:48:45;10.00;;;8.18;;
45730;SDS011;31440;48.584;13.460;2022-08-14T04:51:12;8.55;;;7.65;;
45730;SDS011;31440;48.584;13.460;2022-08-14T04:53:40;11.13;;;9.10;;
45730;SDS011;31440;48.584;13.460;2022-08-14T04:56:11;10.95;;;8.82;;
45730;SDS011;31440;48.584;13.460;2022-08-14T04:58:38;9.65;;;8.60;;
45730;SDS011;31440;48.584;13.460;2022-08-14T05:01:04;9.25;;;8.23;;
45730;SDS011;31440;48.584;13.460;2022-08-14T05:03:32;11.30;;;9.25;;
45730;SDS011;31440;48.584;13.460;2022-08-14T05:06:01;9.73;;;8.73;;
45730;SDS011;31440;48.584;13.460;2022-08-14T05:08:29;10.35;;;9.23;;
45730;SDS011;31440;48.584;13.460;2022-08-14T05:10:56;10.43;;;7.85;;
45730;SDS011;31440;48.584;13.460;2022-08-14T05:13:24;12.75;;;8.25;;
45730;SDS011;31440;48.584;13.460;2022-08-14T05:15:52;10.32;;;8.98;;
45730;SDS011;31440;48.584;13.460;2022-08-14T05:18:23;11.18;;;8.27;;
45730;SDS011;31440;48.584;13.460;2022-08-14T05:20:51;11.27;;;8.77;;
45730;SDS011;31440;48.584;13.460;2022-08-14T05:23:19;9.85;;;8.25;;
45730;SDS011;31440;48.584;13.460;2022-08-14T05:25:51;10.13;;;8.48;;
45730;SDS011;31440;48.584;13.460;2022-08-14T05:28:20;10.18;;;8.60;;
45730;SDS011;31440;48.584;13.460;2022-08-14T05:30:50;9.82;;;7.72;;
45730;SDS011;31440;48.584;13.460;2022-08-14T05:33:21;11.70;;;9.25;;
45730;SDS011;31440;48.584;13.460;2022-08-14T05:35:49;12.00;;;10.40;;
45730;SDS011;31440;48.584;13.460;2022-08-14T05:38:16;12.02;;;9.27;;
45730;SDS011;31440;48.584;13.460;2022-08-14T05:40:44;10.68;;;9.43;;
45730;SDS011;31440;48.584;13.460;2022-08-14T05:43:11;10.65;;;8.77;;
45730;SDS011;31440;48.584;13.460;2022-08-14T05:45:37;9.18;;;8.18;;
45730;SDS011;31440;48.584;13.460;2022-08-14T05:48:03;7.90;;;7.07;;
45730;SDS011;31440;48.584;13.460;2022-08-14T05:50:30;8.43;;;7.55;;
45730;SDS011;31440;48.584;13.460;2022-08-14T05:52:57;7.88;;;7.07;;
45730;SDS011;31440;48.584;13.460;2022-08-14T05:55:23;8.85;;;7.60;;
45730;SDS011;31440;48.584;13.460;2022-08-14T05:57:53;9.55;;;7.65;;
45730;SDS011;31440;48.584;13.460;2022-08-14T06:00:21;9.52;;;7.28;;
45730;SDS011;31440;48.584;13.460;2022-08-14T06:02:48;9.23;;;7.55;;
45730;SDS011;31440;48.584;13.460;2022-08-14T06:05:14;9.43;;;8.43;;
45730;SDS011;31440;48.584;13.460;2022-08-14T06:07:39;9.55;;;7.82;;
45730;SDS011;31440;48.584;13.460;2022-08-14T06:10:06;9.82;;;7.75;;
45730;SDS011;31440;48.584;13.460;2022-08-14T06:12:33;8.98;;;7.55;;
45730;SDS011;31440;48.584;13.460;2022-08-14T06:14:59;10.27;;;7.60;;
45730;SDS011;31440;48.584;13.460;2022-08-14T06:17:25;8.82;;;7.10;;
45730;SDS011;31440;48.584;13.460;2022-08-14T06:19:50;7.30;;;6.60;;
45730;SDS011;31440;48.584;13.460;2022-08-14T06:22:16;7.82;;;6.68;;
45730;SDS011;31440;48.584;13.460;2022-08-14T06:24:42;7.15;;;6.32;;
45730;SDS011;31440;48.584;13.460;2022-08-14T06:27:07;8.98;;;7.22;;
45730;SDS011;31440;48.584;13.460;2022-08-14T06:29:33;8.00;;;6.43;;
45730;SDS011;31440;48.584;13.460;2022-08-14T06:31:59;7.75;;;6.90;;
45730;SDS011;31440;48.584;13.460;2022-08-14T06:34:25;7.22;;;6.47;;
45730;SDS011;31440;48.584;13.460;2022-08-14T06:36:50;7.57;;;6.35;;
45730;SDS011;31440;48.584;13.460;2022-08-14T06:39:17;7.75;;;6.45;;
45730;SDS011;31440;48.584;13.460;2022-08-14T06:41:43;7.80;;;6.95;;
45730;SDS011;31440;48.584;13.460;2022-08-14T06:44:08;8.38;;;6.75;;
45730;SDS011;31440;48.584;13.460;2022-08-14T06:46:34;8.07;;;7.03;;
45730;SDS011;31440;48.584;13.460;2022-08-14T06:49:00;7.22;;;6.28;;
45730;SDS011;31440;48.584;13.460;2022-08-14T06:51:27;5.97;;;5.38;;
45730;SDS011;31440;48.584;13.460;2022-08-14T06:53:52;7.05;;;6.13;;
45730;SDS011;31440;48.584;13.460;2022-08-14T06:56:18;6.85;;;5.72;;
45730;SDS011;31440;48.584;13.460;2022-08-14T06:58:44;7.68;;;5.60;;
45730;SDS011;31440;48.584;13.460;2022-08-14T07:01:09;6.75;;;6.05;;
45730;SDS011;31440;48.584;13.460;2022-08-14T07:03:54;5.80;;;5.30;;
45730;SDS011;31440;48.584;13.460;2022-08-14T07:06:39;8.25;;;5.72;;
45730;SDS011;31440;48.584;13.460;2022-08-14T07:09:04;6.03;;;5.07;;
45730;SDS011;31440;48.584;13.460;2022-08-14T07:11:30;5.88;;;5.28;;
45730;SDS011;31440;48.584;13.460;2022-08-14T07:13:56;6.03;;;5.05;;
45730;SDS011;31440;48.584;13.460;2022-08-14T07:16:21;6.55;;;5.75;;
45730;SDS011;31440;48.584;13.460;2022-08-14T07:18:47;6.38;;;4.97;;
45730;SDS011;31440;48.584;13.460;2022-08-14T07:21:13;6.00;;;4.60;;
45730;SDS011;31440;48.584;13.460;2022-08-14T07:23:40;5.18;;;4.32;;
45730;SDS011;31440;48.584;13.460;2022-08-14T07:26:05;6.15;;;4.32;;
45730;SDS011;31440;48.584;13.460;2022-08-14T07:28:33;5.63;;;5.03;;
45730;SDS011;31440;48.584;13.460;2022-08-14T07:31:03;5.65;;;4.72;;
45730;SDS011;31440;48.584;13.460;2022-08-14T07:33:32;5.22;;;4.72;;
45730;SDS011;31440;48.584;13.460;2022-08-14T07:36:08;4.93;;;4.50;;
45730;SDS011;31440;48.584;13.460;2022-08-14T07:38:35;4.75;;;4.28;;
45730;SDS011;31440;48.584;13.460;2022-08-14T07:41:02;6.53;;;4.93;;
45730;SDS011;31440;48.584;13.460;2022-08-14T07:43:29;4.75;;;4.18;;
45730;SDS011;31440;48.584;13.460;2022-08-14T07:45:55;6.40;;;5.43;;
45730;SDS011;31440;48.584;13.460;2022-08-14T07:48:20;7.47;;;5.05;;
45730;SDS011;31440;48.584;13.460;2022-08-14T07:50:46;6.72;;;4.63;;
45730;SDS011;31440;48.584;13.460;2022-08-14T07:53:14;7.03;;;4.60;;
45730;SDS011;31440;48.584;13.460;2022-08-14T07:55:42;7.10;;;4.35;;
45730;SDS011;31440;48.584;13.460;2022-08-14T07:58:08;4.60;;;4.13;;
45730;SDS011;31440;48.584;13.460;2022-08-14T08:00:34;5.75;;;4.60;;
45730;SDS011;31440;48.584;13.460;2022-08-14T08:03:00;5.00;;;4.50;;
45730;SDS011;31440;48.584;13.460;2022-08-14T08:05:27;4.82;;;4.28;;
45730;SDS011;31440;48.584;13.460;2022-08-14T08:07:52;4.65;;;4.25;;
45730;SDS011;31440;48.584;13.460;2022-08-14T08:10:23;4.97;;;4.47;;
45730;SDS011;31440;48.584;13.460;2022-08-14T08:12:57;5.78;;;4.80;;
45730;SDS011;31440;48.584;13.460;2022-08-14T08:15:23;5.30;;;4.50;;
45730;SDS011;31440;48.584;13.460;2022-08-14T08:17:49;4.95;;;4.35;;
45730;SDS011;31440;48.584;13.460;2022-08-14T08:20:17;5.03;;;3.72;;
45730;SDS011;31440;48.584;13.460;2022-08-14T08:22:44;5.40;;;4.82;;
45730;SDS011;31440;48.584;13.460;2022-08-14T08:25:15;6.10;;;4.53;;
45730;SDS011;31440;48.584;13.460;2022-08-14T08:28:54;6.82;;;5.07;;
45730;SDS011;31440;48.584;13.460;2022-08-14T08:30:54;6.18;;;4.45;;
45730;SDS011;31440;48.584;13.460;2022-08-14T08:33:22;5.43;;;4.53;;
45730;SDS011;31440;48.584;13.460;2022-08-14T08:35:50;4.88;;;4.38;;
45730;SDS011;31440;48.584;13.460;2022-08-14T08:38:17;5.13;;;4.57;;
45730;SDS011;31440;48.584;13.460;2022-08-14T08:40:47;6.13;;;4.95;;
45730;SDS011;31440;48.584;13.460;2022-08-14T08:43:30;5.78;;;4.63;;
45730;SDS011;31440;48.584;13.460;2022-08-14T08:45:59;7.18;;;5.70;;
45730;SDS011;31440;48.584;13.460;2022-08-14T08:48:43;6.20;;;4.65;;
45730;SDS011;31440;48.584;13.460;2022-08-14T08:51:21;5.47;;;4.75;;
45730;SDS011;31440;48.584;13.460;2022-08-14T08:56:42;6.78;;;4.78;;
45730;SDS011;31440;48.584;13.460;2022-08-14T08:59:15;7.43;;;4.88;;
45730;SDS011;31440;48.584;13.460;2022-08-14T09:01:56;7.03;;;4.90;;
45730;SDS011;31440;48.584;13.460;2022-08-14T09:04:27;7.93;;;5.50;;
45730;SDS011;31440;48.584;13.460;2022-08-14T09:06:54;6.40;;;5.25;;
45730;SDS011;31440;48.584;13.460;2022-08-14T09:09:22;6.05;;;4.75;;
45730;SDS011;31440;48.584;13.460;2022-08-14T09:11:54;5.70;;;4.50;;
45730;SDS011;31440;48.584;13.460;2022-08-14T09:14:22;6.05;;;5.20;;
45730;SDS011;31440;48.584;13.460;2022-08-14T09:16:49;7.07;;;4.85;;
45730;SDS011;31440;48.584;13.460;2022-08-14T09:19:16;4.90;;;4.40;;
45730;SDS011;31440;48.584;13.460;2022-08-14T09:21:43;5.07;;;4.57;;
45730;SDS011;31440;48.584;13.460;2022-08-14T09:24:10;5.53;;;4.85;;
45730;SDS011;31440;48.584;13.460;2022-08-14T09:26:36;5.22;;;4.68;;
45730;SDS011;31440;48.584;13.460;2022-08-14T09:29:02;4.35;;;3.95;;
45730;SDS011;31440;48.584;13.460;2022-08-14T09:31:29;7.25;;;5.32;;
45730;SDS011;31440;48.584;13.460;2022-08-14T09:34:02;5.15;;;4.63;;
45730;SDS011;31440;48.584;13.460;2022-08-14T09:42:49;5.90;;;4.95;;
45730;SDS011;31440;48.584;13.460;2022-08-14T09:45:30;5.63;;;5.13;;
45730;SDS011;31440;48.584;13.460;2022-08-14T09:48:21;4.95;;;4.32;;
45730;SDS011;31440;48.584;13.460;2022-08-14T09:50:49;7.15;;;4.68;;
45730;SDS011;31440;48.584;13.460;2022-08-14T09:53:33;5.43;;;4.40;;
45730;SDS011;31440;48.584;13.460;2022-08-14T09:56:11;5.68;;;5.05;;
45730;SDS011;31440;48.584;13.460;2022-08-14T09:58:40;6.60;;;4.88;;
45730;SDS011;31440;48.584;13.460;2022-08-14T10:03:35;5.93;;;4.75;;
45730;SDS011;31440;48.584;13.460;2022-08-14T10:06:15;5.47;;;4.97;;
45730;SDS011;31440;48.584;13.460;2022-08-14T10:08:46;7.57;;;4.97;;
45730;SDS011;31440;48.584;13.460;2022-08-14T10:13:48;6.90;;;5.00;;
45730;SDS011;31440;48.584;13.460;2022-08-14T10:16:19;4.80;;;4.07;;
45730;SDS011;31440;48.584;13.460;2022-08-14T10:19:27;5.82;;;4.60;;
45730;SDS011;31440;48.584;13.460;2022-08-14T10:21:56;5.07;;;4.45;;
45730;SDS011;31440;48.584;13.460;2022-08-14T10:24:32;5.60;;;5.03;;
45730;SDS011;31440;48.584;13.460;2022-08-14T10:27:12;6.97;;;5.13;;
45730;SDS011;31440;48.584;13.460;2022-08-14T10:29:49;6.13;;;4.47;;
45730;SDS011;31440;48.584;13.460;2022-08-14T10:32:16;6.70;;;4.43;;
45730;SDS011;31440;48.584;13.460;2022-08-14T10:34:42;4.90;;;4.45;;
45730;SDS011;31440;48.584;13.460;2022-08-14T10:37:09;6.65;;;4.90;;
45730;SDS011;31440;48.584;13.460;2022-08-14T10:39:37;5.57;;;4.88;;
45730;SDS011;31440;48.584;13.460;2022-08-14T10:42:08;9.65;;;5.00;;
45730;SDS011;31440;48.584;13.460;2022-08-14T10:44:43;5.75;;;5.18;;
45730;SDS011;31440;48.584;13.460;2022-08-14T10:47:15;5.82;;;4.32;;
45730;SDS011;31440;48.584;13.460;2022-08-14T10:49:57;5.65;;;5.05;;
45730;SDS011;31440;48.584;13.460;2022-08-14T10:52:26;4.80;;;4.32;;
45730;SDS011;31440;48.584;13.460;2022-08-14T10:55:04;4.93;;;4.43;;
45730;SDS011;31440;48.584;13.460;2022-08-14T10:57:32;8.73;;;4.78;;
45730;SDS011;31440;48.584;13.460;2022-08-14T11:00:00;7.97;;;4.50;;
45730;SDS011;31440;48.584;13.460;2022-08-14T11:02:40;6.93;;;4.80;;
45730;SDS011;31440;48.584;13.460;2022-08-14T11:07:40;6.43;;;4.97;;
45730;SDS011;31440;48.584;13.460;2022-08-14T11:10:18;6.30;;;4.95;;
45730;SDS011;31440;48.584;13.460;2022-08-14T11:12:48;5.13;;;4.57;;
45730;SDS011;31440;48.584;13.460;2022-08-14T11:15:20;5.30;;;4.80;;
45730;SDS011;31440;48.584;13.460;2022-08-14T11:17:48;5.00;;;4.50;;
45730;SDS011;31440;48.584;13.460;2022-08-14T11:20:16;5.95;;;4.80;;
45730;SDS011;31440;48.584;13.460;2022-08-14T11:22:43;6.28;;;5.28;;
45730;SDS011;31440;48.584;13.460;2022-08-14T11:25:10;6.70;;;4.70;;
45730;SDS011;31440;48.584;13.460;2022-08-14T11:27:42;5.30;;;4.80;;
45730;SDS011;31440;48.584;13.460;2022-08-14T11:30:11;5.25;;;4.57;;
45730;SDS011;31440;48.584;13.460;2022-08-14T11:32:39;5.75;;;5.20;;
45730;SDS011;31440;48.584;13.460;2022-08-14T11:35:11;5.90;;;5.03;;
45730;SDS011;31440;48.584;13.460;2022-08-14T11:37:56;5.45;;;4.93;;
45730;SDS011;31440;48.584;13.460;2022-08-14T11:40:29;5.70;;;4.80;;
45730;SDS011;31440;48.584;13.460;2022-08-14T11:42:59;5.72;;;5.13;;
45730;SDS011;31440;48.584;13.460;2022-08-14T11:45:31;5.30;;;4.75;;
45730;SDS011;31440;48.584;13.460;2022-08-14T11:47:59;5.32;;;4.60;;
45730;SDS011;31440;48.584;13.460;2022-08-14T11:50:27;5.32;;;4.82;;
45730;SDS011;31440;48.584;13.460;2022-08-14T11:52:55;6.32;;;4.90;;
45730;SDS011;31440;48.584;13.460;2022-08-14T11:55:24;5.88;;;4.35;;
45730;SDS011;31440;48.584;13.460;2022-08-14T11:58:01;5.40;;;4.90;;
45730;SDS011;31440;48.584;13.460;2022-08-14T12:00:32;5.35;;;4.85;;
45730;SDS011;31440;48.584;13.460;2022-08-14T12:02:59;5.47;;;4.88;;
45730;SDS011;31440;48.584;13.460;2022-08-14T12:05:33;6.45;;;4.95;;
45730;SDS011;31440;48.584;13.460;2022-08-14T12:08:00;5.43;;;4.50;;
45730;SDS011;31440;48.584;13.460;2022-08-14T12:10:31;5.72;;;5.13;;
45730;SDS011;31440;48.584;13.460;2022-08-14T12:13:09;7.63;;;5.22;;
45730;SDS011;31440;48.584;13.460;2022-08-14T12:15:42;4.40;;;4.00;;
45730;SDS011;31440;48.584;13.460;2022-08-14T12:18:09;6.10;;;5.03;;
45730;SDS011;31440;48.584;13.460;2022-08-14T12:20:37;4.65;;;4.25;;
45730;SDS011;31440;48.584;13.460;2022-08-14T12:23:05;6.47;;;5.35;;
45730;SDS011;31440;48.584;13.460;2022-08-14T12:25:33;5.20;;;4.63;;
45730;SDS011;31440;48.584;13.460;2022-08-14T12:28:04;5.55;;;5.03;;
45730;SDS011;31440;48.584;13.460;2022-08-14T12:33:03;7.72;;;5.72;;
45730;SDS011;31440;48.584;13.460;2022-08-14T12:35:39;6.38;;;5.70;;
45730;SDS011;31440;48.584;13.460;2022-08-14T12:38:10;5.38;;;4.88;;
45730;SDS011;31440;48.584;13.460;2022-08-14T12:40:50;4.68;;;4.28;;
45730;SDS011;31440;48.584;13.460;2022-08-14T12:43:18;7.22;;;4.97;;
45730;SDS011;31440;48.584;13.460;2022-08-14T12:45:46;5.35;;;4.60;;
45730;SDS011;31440;48.584;13.460;2022-08-14T12:48:22;5.82;;;4.57;;
45730;SDS011;31440;48.584;13.460;2022-08-14T12:50:49;5.88;;;5.28;;
45730;SDS011;31440;48.584;13.460;2022-08-14T12:53:16;6.18;;;4.38;;
45730;SDS011;31440;48.584;13.460;2022-08-14T12:55:43;6.53;;;4.75;;
45730;SDS011;31440;48.584;13.460;2022-08-14T12:58:10;5.68;;;4.72;;
45730;SDS011;31440;48.584;13.460;2022-08-14T13:00:37;5.88;;;5.00;;
45730;SDS011;31440;48.584;13.460;2022-08-14T13:03:21;7.05;;;5.18;;
45730;SDS011;31440;48.584;13.460;2022-08-14T13:05:49;5.25;;;4.72;;
45730;SDS011;31440;48.584;13.460;2022-08-14T13:08:14;5.57;;;4.95;;
45730;SDS011;31440;48.584;13.460;2022-08-14T13:10:40;6.45;;;5.13;;
45730;SDS011;31440;48.584;13.460;2022-08-14T13:13:06;5.95;;;5.35;;
45730;SDS011;31440;48.584;13.460;2022-08-14T13:15:34;5.20;;;4.57;;
45730;SDS011;31440;48.584;13.460;2022-08-14T13:18:00;5.35;;;4.85;;
45730;SDS011;31440;48.584;13.460;2022-08-14T13:20:29;6.80;;;5.07;;
45730;SDS011;31440;48.584;13.460;2022-08-14T13:22:55;5.05;;;4.55;;
45730;SDS011;31440;48.584;13.460;2022-08-14T13:25:24;6.47;;;4.47;;
45730;SDS011;31440;48.584;13.460;2022-08-14T13:27:52;5.55;;;4.65;;
45730;SDS011;31440;48.584;13.460;2022-08-14T13:30:20;7.10;;;4.70;;
45730;SDS011;31440;48.584;13.460;2022-08-14T13:32:48;6.13;;;4.55;;
45730;SDS011;31440;48.584;13.460;2022-08-14T13:35:15;5.45;;;4.72;;
45730;SDS011;31440;48.584;13.460;2022-08-14T13:37:42;6.53;;;4.68;;
45730;SDS011;31440;48.584;13.460;2022-08-14T13:40:09;5.32;;;4.30;;
45730;SDS011;31440;48.584;13.460;2022-08-14T13:42:38;4.93;;;4.35;;
45730;SDS011;31440;48.584;13.460;2022-08-14T13:45:06;4.97;;;4.43;;
45730;SDS011;31440;48.584;13.460;2022-08-14T13:47:32;7.40;;;4.85;;
45730;SDS011;31440;48.584;13.460;2022-08-14T13:50:00;4.88;;;4.40;;
45730;SDS011;31440;48.584;13.460;2022-08-14T13:53:00;4.55;;;4.13;;
45730;SDS011;31440;48.584;13.460;2022-08-14T13:55:26;4.43;;;4.03;;
45730;SDS011;31440;48.584;13.460;2022-08-14T13:57:56;7.03;;;4.32;;
45730;SDS011;31440;48.584;13.460;2022-08-14T14:00:23;5.05;;;4.57;;
45730;SDS011;31440;48.584;13.460;2022-08-14T14:02:50;4.75;;;4.10;;
45730;SDS011;31440;48.584;13.460;2022-08-14T14:05:17;4.80;;;4.40;;
45730;SDS011;31440;48.584;13.460;2022-08-14T14:07:47;5.55;;;4.25;;
45730;SDS011;31440;48.584;13.460;2022-08-14T14:10:15;4.65;;;3.90;;
45730;SDS011;31440;48.584;13.460;2022-08-14T14:12:42;4.65;;;4.15;;
45730;SDS011;31440;48.584;13.460;2022-08-14T14:15:10;6.07;;;4.22;;
45730;SDS011;31440;48.584;13.460;2022-08-14T14:17:38;4.40;;;4.00;;
45730;SDS011;31440;48.584;13.460;2022-08-14T14:20:05;4.43;;;3.35;;
45730;SDS011;31440;48.584;13.460;2022-08-14T14:22:38;3.80;;;3.50;;
45730;SDS011;31440;48.584;13.460;2022-08-14T14:25:08;3.88;;;3.45;;
45730;SDS011;31440;48.584;13.460;2022-08-14T14:27:35;7.25;;;4.35;;
45730;SDS011;31440;48.584;13.460;2022-08-14T14:30:04;4.85;;;3.42;;
45730;SDS011;31440;48.584;13.460;2022-08-14T14:32:30;5.88;;;3.97;;
45730;SDS011;31440;48.584;13.460;2022-08-14T14:34:57;4.30;;;3.88;;
45730;SDS011;31440;48.584;13.460;2022-08-14T14:37:28;5.45;;;3.97;;
45730;SDS011;31440;48.584;13.460;2022-08-14T14:39:55;4.03;;;3.40;;
45730;SDS011;31440;48.584;13.460;2022-08-14T14:42:23;4.15;;;3.78;;
45730;SDS011;31440;48.584;13.460;2022-08-14T14:44:50;4.10;;;3.70;;
45730;SDS011;31440;48.584;13.460;2022-08-14T14:47:24;3.55;;;3.25;;
45730;SDS011;31440;48.584;13.460;2022-08-14T14:49:50;3.80;;;3.50;;
45730;SDS011;31440;48.584;13.460;2022-08-14T14:52:17;4.25;;;3.25;;
45730;SDS011;31440;48.584;13.460;2022-08-14T14:54:47;3.38;;;3.00;;
45730;SDS011;31440;48.584;13.460;2022-08-14T14:57:14;4.25;;;3.50;;
45730;SDS011;31440;48.584;13.460;2022-08-14T14:59:41;4.03;;;3.63;;
45730;SDS011;31440;48.584;13.460;2022-08-14T15:02:07;4.38;;;3.92;;
45730;SDS011;31440;48.584;13.460;2022-08-14T15:04:37;3.75;;;3.45;;
45730;SDS011;31440;48.584;13.460;2022-08-14T15:07:04;4.25;;;3.78;;